createdAt,value
2023-01-18T00:00:11.320Z,5.23
2023-01-18T00:03:14.481Z,4.60
2023-01-18T00:06:18.183Z,3.60
2023-01-18T00:09:20.365Z,2.13
2023-01-18T00:12:22.325Z,1.90
2023-01-18T00:15:24.353Z,1.57
2023-01-18T00:18:26.329Z,1.60
2023-01-18T00:21:29.084Z,1.40
2023-01-18T00:24:30.981Z,1.40
2023-01-18T00:27:32.913Z,2.83
2023-01-18T00:30:34.853Z,1.30
2023-01-18T00:33:37.400Z,1.77
2023-01-18T00:36:40.783Z,1.37
2023-01-18T00:39:43.005Z,2.03
2023-01-18T00:43:03.744Z,4.10
2023-01-18T00:46:17.132Z,0.90
2023-01-18T00:49:19.026Z,1.43
2023-01-18T00:52:21.643Z,0.90
2023-01-18T00:55:23.825Z,0.90
2023-01-18T00:58:25.815Z,1.70
2023-01-18T01:01:27.927Z,1.07
2023-01-18T01:04:48.739Z,1.13
2023-01-18T01:07:50.745Z,1.50
2023-01-18T01:11:03.248Z,3.33
2023-01-18T01:14:23.706Z,0.80
2023-01-18T01:17:44.555Z,1.13
2023-01-18T01:21:04.984Z,0.50
2023-01-18T01:24:26.240Z,3.13
2023-01-18T01:27:28.192Z,2.53
2023-01-18T01:30:30.356Z,4.37
2023-01-18T01:33:33.405Z,2.57
2023-01-18T01:36:35.890Z,1.40
2023-01-18T01:39:38.001Z,0.50
2023-01-18T01:42:40.015Z,1.37
2023-01-18T01:45:42.152Z,0.40
2023-01-18T01:48:44.512Z,0.80
2023-01-18T01:51:48.809Z,1.27
2023-01-18T01:55:01.859Z,1.23
2023-01-18T01:58:13.418Z,0.73
2023-01-18T02:01:15.504Z,0.77
2023-01-18T02:04:17.736Z,0.53
2023-01-18T02:07:26.591Z,0.50
2023-01-18T02:10:29.727Z,0.80
2023-01-18T02:13:32.248Z,1.10
2023-01-18T02:17:00.419Z,1.70
2023-01-18T02:20:20.742Z,0.90
2023-01-18T02:23:48.970Z,0.43
2023-01-18T02:27:21.211Z,0.80
2023-01-18T02:30:30.846Z,0.70
2023-01-18T02:34:13.963Z,0.57
2023-01-18T02:37:33.689Z,1.00
2023-01-18T02:40:47.812Z,1.00
2023-01-18T02:44:10.146Z,2.37
2023-01-18T02:47:12.327Z,4.13
2023-01-18T02:50:23.480Z,2.77
2023-01-18T02:53:25.574Z,1.77
2023-01-18T02:56:38.547Z,1.57
2023-01-18T02:59:49.033Z,1.40
2023-01-18T03:02:51.682Z,5.40
2023-01-18T03:05:58.564Z,0.77
2023-01-18T03:09:01.132Z,1.10
2023-01-18T03:12:13.307Z,1.63
2023-01-18T03:15:30.015Z,2.10
2023-01-18T03:19:01.397Z,3.20
2023-01-18T03:22:03.517Z,1.07
2023-01-18T03:25:07.593Z,1.33
2023-01-18T03:28:35.509Z,2.00
2023-01-18T03:32:22.669Z,0.90
2023-01-18T03:35:28.834Z,0.80
2023-01-18T03:38:31.942Z,0.47
2023-01-18T03:41:37.151Z,1.83
2023-01-18T03:45:02.010Z,0.67
2023-01-18T03:48:04.977Z,1.43
2023-01-18T03:51:25.822Z,0.70
2023-01-18T03:54:34.291Z,0.83
2023-01-18T03:57:57.239Z,0.90
2023-01-18T04:00:59.411Z,1.03
2023-01-18T04:04:01.644Z,0.60
2023-01-18T04:07:03.949Z,0.60
2023-01-18T04:10:06.431Z,1.53
2023-01-18T04:13:08.389Z,1.17
2023-01-18T04:16:10.471Z,2.03
2023-01-18T04:19:12.443Z,1.37
2023-01-18T04:22:14.924Z,1.13
2023-01-18T04:25:16.876Z,1.13
2023-01-18T04:28:29.133Z,1.67
2023-01-18T04:31:31.398Z,0.60
2023-01-18T04:34:34.503Z,0.97
2023-01-18T04:37:38.431Z,0.93
2023-01-18T04:40:40.790Z,0.87
2023-01-18T04:43:42.651Z,1.03
2023-01-18T04:46:45.266Z,3.93
2023-01-18T04:49:47.229Z,0.50
2023-01-18T04:52:50.057Z,1.37
2023-01-18T04:55:52.381Z,0.70
2023-01-18T04:58:55.460Z,1.27
2023-01-18T05:01:58.157Z,1.37
2023-01-18T05:05:00.859Z,1.67
2023-01-18T05:08:02.957Z,1.47
2023-01-18T05:11:06.755Z,0.50
2023-01-18T05:14:10.348Z,2.33
2023-01-18T05:17:12.504Z,0.60
2023-01-18T05:20:14.749Z,3.80
2023-01-18T05:23:18.161Z,5.43
2023-01-18T05:26:22.137Z,0.90
2023-01-18T05:29:24.582Z,1.30
2023-01-18T05:32:26.452Z,2.13
2023-01-18T05:35:29.346Z,0.83
2023-01-18T05:38:31.219Z,1.10
2023-01-18T05:41:33.179Z,1.77
2023-01-18T05:44:35.260Z,0.90
2023-01-18T05:47:37.314Z,1.13
2023-01-18T05:50:40.479Z,1.07
2023-01-18T05:53:42.715Z,1.73
2023-01-18T05:56:45.222Z,2.30
2023-01-18T05:59:47.204Z,2.33
2023-01-18T06:02:49.181Z,2.97
2023-01-18T06:05:52.989Z,1.43
2023-01-18T06:08:55.553Z,2.70
2023-01-18T06:11:58.100Z,2.50
2023-01-18T06:15:00.877Z,2.03
2023-01-18T06:18:04.972Z,2.87
2023-01-18T06:21:07.977Z,2.73
2023-01-18T06:24:10.088Z,2.60
2023-01-18T06:27:11.948Z,4.03
2023-01-18T06:30:14.137Z,3.30
2023-01-18T06:33:16.218Z,2.90
2023-01-18T06:36:18.273Z,3.77
2023-01-18T06:39:21.059Z,3.37
2023-01-18T06:42:23.006Z,2.83
2023-01-18T06:45:26.073Z,2.10
2023-01-18T06:48:28.956Z,3.60
2023-01-18T06:51:31.296Z,2.03
2023-01-18T06:54:33.477Z,2.50
2023-01-18T06:57:35.399Z,0.80
2023-01-18T07:00:37.766Z,1.57
2023-01-18T07:03:39.781Z,3.37
2023-01-18T07:06:42.009Z,4.17
2023-01-18T07:09:43.933Z,3.57
2023-01-18T07:12:49.024Z,4.60
2023-01-18T07:15:56.969Z,2.73
2023-01-18T07:19:02.173Z,3.47
2023-01-18T07:22:04.098Z,3.90
2023-01-18T07:25:06.760Z,3.60
2023-01-18T07:28:09.343Z,6.37
2023-01-18T07:31:11.871Z,6.23
2023-01-18T07:34:14.904Z,6.87
2023-01-18T07:37:16.837Z,8.87
2023-01-18T07:40:21.112Z,6.97
2023-01-18T07:43:24.464Z,5.20
2023-01-18T07:46:26.544Z,7.03
2023-01-18T07:49:28.527Z,3.93
2023-01-18T07:52:31.877Z,3.77
2023-01-18T07:55:34.187Z,3.07
2023-01-18T07:58:36.553Z,3.73
2023-01-18T08:01:39.433Z,5.03
2023-01-18T08:04:42.316Z,4.87
2023-01-18T08:07:44.240Z,4.13
2023-01-18T08:10:46.195Z,3.17
2023-01-18T08:13:49.844Z,3.47
2023-01-18T08:16:52.212Z,3.67
2023-01-18T08:19:54.546Z,2.93
2023-01-18T08:22:57.861Z,3.00
2023-01-18T08:26:04.081Z,2.30
2023-01-18T08:29:06.648Z,4.63
2023-01-18T08:32:09.086Z,2.40
2023-01-18T08:35:10.988Z,2.37
2023-01-18T08:38:14.425Z,2.83
2023-01-18T08:41:16.567Z,4.20
2023-01-18T08:44:19.340Z,2.77
2023-01-18T08:47:21.646Z,5.63
2023-01-18T08:50:24.103Z,3.70
2023-01-18T08:53:25.981Z,2.33
2023-01-18T08:56:28.308Z,3.97
2023-01-18T08:59:30.176Z,5.63
2023-01-18T09:02:33.396Z,2.20
2023-01-18T09:05:39.928Z,3.10
2023-01-18T09:08:41.993Z,1.20
2023-01-18T09:11:44.407Z,1.00
2023-01-18T09:14:47.051Z,2.83
2023-01-18T09:17:49.091Z,1.10
2023-01-18T09:20:51.658Z,0.97
2023-01-18T09:23:53.631Z,1.20
2023-01-18T09:26:55.975Z,0.50
2023-01-18T09:29:57.917Z,0.63
2023-01-18T09:33:00.206Z,0.70
2023-01-18T09:36:05.103Z,1.67
2023-01-18T09:39:07.708Z,0.30
2023-01-18T09:42:35.755Z,1.10
2023-01-18T09:45:40.067Z,2.57
2023-01-18T09:48:42.966Z,0.73
2023-01-18T09:51:57.601Z,3.30
2023-01-18T09:55:28.942Z,1.00
2023-01-18T09:58:36.868Z,1.97
2023-01-18T10:01:39.556Z,1.53
2023-01-18T10:04:43.721Z,2.93
2023-01-18T10:08:02.650Z,1.23
2023-01-18T10:11:15.376Z,0.30
2023-01-18T10:14:39.932Z,1.90
2023-01-18T10:17:43.845Z,0.80
2023-01-18T10:20:57.444Z,1.57
2023-01-18T10:24:17.825Z,2.63
2023-01-18T10:27:38.416Z,1.97
2023-01-18T10:30:56.165Z,3.67
2023-01-18T10:34:00.598Z,1.10
2023-01-18T10:37:06.690Z,4.40
2023-01-18T10:40:11.207Z,2.67
2023-01-18T10:43:16.718Z,5.13
2023-01-18T10:46:20.061Z,4.10
2023-01-18T10:49:43.335Z,2.10
2023-01-18T10:52:45.220Z,1.30
2023-01-18T10:56:14.922Z,1.60
2023-01-18T10:59:30.255Z,1.70
2023-01-18T11:02:37.549Z,1.00
2023-01-18T11:05:40.513Z,3.87
2023-01-18T11:08:43.861Z,0.80
2023-01-18T11:12:04.405Z,0.57
2023-01-18T11:15:15.969Z,1.93
2023-01-18T11:18:17.964Z,3.07
2023-01-18T11:21:19.867Z,0.80
2023-01-18T11:24:27.889Z,0.90
2023-01-18T11:27:33.217Z,0.97
2023-01-18T11:30:35.626Z,1.33
2023-01-18T11:34:03.427Z,2.73
2023-01-18T11:37:28.603Z,1.37
2023-01-18T11:40:34.120Z,3.30
2023-01-18T11:43:38.329Z,2.37
2023-01-18T11:46:51.922Z,2.20
2023-01-18T11:50:10.394Z,4.73
2023-01-18T11:53:26.159Z,1.83
2023-01-18T11:56:42.124Z,2.03
2023-01-18T11:59:46.427Z,4.53
2023-01-18T12:03:09.903Z,13.27
2023-01-18T12:06:48.916Z,2.10
2023-01-18T12:09:56.316Z,1.03
2023-01-18T12:13:14.243Z,0.97
2023-01-18T12:16:28.469Z,1.30
2023-01-18T12:19:45.744Z,1.13
2023-01-18T12:23:30.296Z,1.40
2023-01-18T12:26:47.366Z,2.33
2023-01-18T12:30:05.383Z,1.77
2023-01-18T12:33:38.281Z,3.67
2023-01-18T12:36:56.844Z,2.70
2023-01-18T12:40:28.861Z,3.03
2023-01-18T12:43:57.642Z,1.10
2023-01-18T12:47:16.432Z,1.33
2023-01-18T12:50:23.354Z,5.70
2023-01-18T12:53:41.836Z,7.50
2023-01-18T12:56:49.672Z,5.93
2023-01-18T13:00:06.838Z,3.90
2023-01-18T13:03:15.120Z,3.37
2023-01-18T13:06:19.263Z,1.27
2023-01-18T13:09:24.005Z,1.53
2023-01-18T13:12:26.345Z,1.43
2023-01-18T13:15:48.342Z,1.77
2023-01-18T13:18:58.487Z,1.10
2023-01-18T13:22:08.614Z,1.20
2023-01-18T13:25:28.337Z,2.58
2023-01-18T13:28:30.293Z,1.20
2023-01-18T13:31:33.110Z,0.63
2023-01-18T13:34:47.710Z,1.53
2023-01-18T13:37:56.288Z,1.10
2023-01-18T13:41:05.180Z,0.90
2023-01-18T13:44:27.323Z,6.00
2023-01-18T13:47:46.271Z,2.07
2023-01-18T13:50:48.270Z,1.60
2023-01-18T13:53:50.817Z,1.10
2023-01-18T13:57:01.782Z,0.80
2023-01-18T14:00:05.762Z,2.40
2023-01-18T14:03:16.680Z,2.80
2023-01-18T14:06:37.919Z,2.90
2023-01-18T14:09:43.214Z,1.87
2023-01-18T14:12:51.728Z,2.20
2023-01-18T14:15:54.628Z,1.37
2023-01-18T14:19:19.362Z,1.17
2023-01-18T14:22:55.282Z,0.93
2023-01-18T14:26:04.303Z,1.10
2023-01-18T14:29:20.810Z,2.13
2023-01-18T14:32:27.606Z,1.60
2023-01-18T14:35:29.990Z,2.77
2023-01-18T14:38:32.452Z,1.37
2023-01-18T14:41:34.891Z,2.37
2023-01-18T14:44:57.415Z,2.83
2023-01-18T14:48:23.383Z,2.10
2023-01-18T14:51:28.442Z,1.57
2023-01-18T14:54:31.467Z,1.13
2023-01-18T14:57:33.378Z,0.87
2023-01-18T15:00:49.913Z,0.73
2023-01-18T15:03:59.896Z,2.03
2023-01-18T15:07:04.356Z,2.77
2023-01-18T15:10:10.262Z,2.63
2023-01-18T15:13:17.201Z,2.07
2023-01-18T15:16:22.160Z,2.83
2023-01-18T15:19:37.004Z,4.23
2023-01-18T15:22:40.606Z,2.00
2023-01-18T15:25:43.968Z,2.27
2023-01-18T15:28:45.946Z,2.63
2023-01-18T15:32:11.340Z,1.83
2023-01-18T15:35:14.870Z,4.27
2023-01-18T15:38:17.336Z,8.90
2023-01-18T15:41:19.701Z,6.93
2023-01-18T15:44:30.893Z,5.50
2023-01-18T15:47:36.987Z,4.60
2023-01-18T15:50:50.618Z,4.50
2023-01-18T15:53:56.699Z,5.33
2023-01-18T15:57:11.901Z,7.10
2023-01-18T16:00:48.225Z,8.07
2023-01-18T16:03:50.213Z,7.07
2023-01-18T16:06:52.087Z,7.90
2023-01-18T16:10:32.909Z,6.53
2023-01-18T16:13:40.068Z,5.83
2023-01-18T16:16:42.997Z,4.13
2023-01-18T16:19:53.159Z,4.63
2023-01-18T16:23:03.972Z,4.73
2023-01-18T16:26:07.171Z,2.57
2023-01-18T16:29:09.909Z,5.07
2023-01-18T16:32:30.004Z,4.37
2023-01-18T16:35:32.038Z,5.80
2023-01-18T16:38:33.947Z,14.20
2023-01-18T16:41:35.926Z,16.27
2023-01-18T16:44:43.421Z,4.77
2023-01-18T16:47:45.458Z,2.70
2023-01-18T16:50:48.044Z,5.03
2023-01-18T16:53:50.001Z,2.77
2023-01-18T16:56:51.926Z,4.07
2023-01-18T16:59:54.369Z,3.23
2023-01-18T17:02:56.908Z,3.73
2023-01-18T17:05:59.726Z,2.30
2023-01-18T17:09:01.634Z,3.53
2023-01-18T17:12:03.703Z,2.47
2023-01-18T17:15:06.572Z,4.37
2023-01-18T17:18:15.309Z,6.23
2023-01-18T17:21:17.223Z,8.73
2023-01-18T17:24:22.361Z,6.37
2023-01-18T17:27:24.335Z,3.73
2023-01-18T17:30:26.348Z,4.63
2023-01-18T17:33:28.766Z,4.90
2023-01-18T17:36:30.893Z,6.87
2023-01-18T17:39:43.036Z,4.60
2023-01-18T17:42:54.120Z,5.47
2023-01-18T17:46:01.430Z,5.77
2023-01-18T17:49:04.765Z,6.07
2023-01-18T17:52:06.713Z,7.47
2023-01-18T17:55:12.112Z,5.90
2023-01-18T17:58:14.107Z,5.50
2023-01-18T18:01:18.870Z,4.37
2023-01-18T18:04:20.967Z,4.47
2023-01-18T18:07:23.004Z,5.17
2023-01-18T18:10:25.018Z,5.60
2023-01-18T18:13:28.070Z,5.97
2023-01-18T18:16:30.636Z,5.70
2023-01-18T18:19:34.820Z,5.40
2023-01-18T18:22:37.714Z,4.97
2023-01-18T18:25:40.552Z,4.70
2023-01-18T18:28:43.096Z,5.63
2023-01-18T18:31:46.273Z,4.83
2023-01-18T18:34:48.231Z,4.70
2023-01-18T18:37:51.078Z,5.33
2023-01-18T18:40:54.439Z,8.30
2023-01-18T18:43:57.861Z,6.30
2023-01-18T18:46:59.905Z,5.13
2023-01-18T18:50:02.307Z,6.50
2023-01-18T18:53:04.375Z,5.17
2023-01-18T18:56:09.815Z,6.93
2023-01-18T18:59:12.223Z,7.67
2023-01-18T19:02:16.228Z,5.87
2023-01-18T19:05:18.223Z,7.33
2023-01-18T19:08:20.329Z,6.33
2023-01-18T19:11:22.502Z,7.10
2023-01-18T19:14:27.435Z,5.77
2023-01-18T19:17:31.443Z,8.17
2023-01-18T19:20:34.187Z,5.53
2023-01-18T19:23:36.203Z,6.57
2023-01-18T19:26:38.345Z,7.33
2023-01-18T19:29:40.292Z,6.60
2023-01-18T19:32:42.259Z,5.40
2023-01-18T19:35:46.307Z,5.63
2023-01-18T19:38:57.711Z,7.20
2023-01-18T19:42:02.454Z,7.50
2023-01-18T19:45:08.079Z,8.43
2023-01-18T19:48:10.426Z,7.37
2023-01-18T19:51:21.577Z,10.10
2023-01-18T19:54:24.276Z,5.70
2023-01-18T19:57:27.032Z,6.40
2023-01-18T20:00:29.945Z,6.27
2023-01-18T20:03:33.789Z,8.87
2023-01-18T20:06:40.091Z,6.13
2023-01-18T20:09:43.767Z,4.83
2023-01-18T20:12:49.743Z,7.10
2023-01-18T20:15:54.379Z,5.87
2023-01-18T20:18:56.714Z,7.50
2023-01-18T20:21:58.754Z,5.77
2023-01-18T20:25:04.700Z,6.83
2023-01-18T20:28:07.279Z,6.70
2023-01-18T20:31:10.404Z,6.33
2023-01-18T20:34:12.510Z,6.10
2023-01-18T20:37:15.378Z,5.70
2023-01-18T20:40:18.197Z,7.90
2023-01-18T20:43:20.201Z,8.13
2023-01-18T20:46:24.207Z,7.27
2023-01-18T20:49:37.311Z,7.87
2023-01-18T20:52:42.381Z,9.03
2023-01-18T20:55:44.405Z,5.97
2023-01-18T20:58:46.765Z,7.90
2023-01-18T21:01:48.843Z,7.30
2023-01-18T21:04:51.632Z,6.67
2023-01-18T21:07:53.518Z,9.20
2023-01-18T21:10:56.068Z,7.33
2023-01-18T21:14:03.290Z,7.77
2023-01-18T21:17:05.348Z,7.63
2023-01-18T21:20:07.860Z,7.97
2023-01-18T21:23:10.530Z,9.23
2023-01-18T21:26:13.433Z,8.40
2023-01-18T21:29:16.274Z,9.33
2023-01-18T21:32:18.215Z,8.83
2023-01-18T21:35:21.027Z,8.80
2023-01-18T21:38:23.457Z,9.40
2023-01-18T21:41:44.386Z,7.67
2023-01-18T21:45:05.050Z,7.40
2023-01-18T21:48:08.002Z,8.03
2023-01-18T21:51:28.268Z,6.90
2023-01-18T21:54:30.686Z,7.33
2023-01-18T21:57:32.600Z,7.80
2023-01-18T22:00:39.085Z,7.93
2023-01-18T22:03:41.792Z,9.57
2023-01-18T22:06:44.097Z,10.93
2023-01-18T22:10:02.901Z,10.43
2023-01-18T22:13:06.339Z,7.73
2023-01-18T22:16:08.672Z,7.23
2023-01-18T22:19:12.199Z,7.77
2023-01-18T22:22:14.937Z,8.57
2023-01-18T22:25:17.176Z,10.80
2023-01-18T22:28:19.093Z,8.80
2023-01-18T22:31:21.218Z,7.90
2023-01-18T22:34:23.910Z,9.17
2023-01-18T22:37:27.916Z,9.63
2023-01-18T22:40:30.387Z,7.73
2023-01-18T22:43:34.663Z,9.43
2023-01-18T22:46:36.535Z,9.80
2023-01-18T22:49:38.568Z,7.97
2023-01-18T22:52:40.502Z,5.93
2023-01-18T22:55:42.407Z,6.10
2023-01-18T22:58:44.366Z,8.57
2023-01-18T23:01:46.311Z,7.23
2023-01-18T23:04:48.690Z,9.53
2023-01-18T23:07:51.055Z,7.37
2023-01-18T23:10:57.091Z,6.47
2023-01-18T23:14:18.177Z,6.33
2023-01-18T23:17:38.768Z,6.23
2023-01-18T23:20:40.767Z,6.07
2023-01-18T23:23:42.745Z,12.70
2023-01-18T23:26:44.940Z,8.97
2023-01-18T23:29:58.825Z,7.23
2023-01-18T23:33:01.212Z,6.97
2023-01-18T23:36:03.661Z,4.77
2023-01-18T23:39:24.326Z,6.90
2023-01-18T23:42:45.563Z,7.53
2023-01-18T23:46:06.279Z,5.70
2023-01-18T23:49:26.964Z,7.07
2023-01-18T23:52:47.541Z,4.67
2023-01-18T23:55:53.192Z,3.03
2023-01-18T23:58:56.780Z,6.40
